Terminal Aerodrome Forecast
Issued by NWS

Home | Current Version | Previous Version | Text Only | Print | Product List | Glossary On
Versions: 1 2 3 4 5 6 7 8 9 10 11 12 13 14 15 16 17
000
FTAK31 PAJN 051100
TAFASI
TAF
PASI 051120Z 0512/0612 33006KT P6SM BKN200
     FM051800 31006KT P6SM BKN200
     FM052100 28009KT P6SM BKN200
     FM060400 30006KT P6SM BKN200=

USA.gov is the U.S. government's official web portal to all federal, state and local government web resources and services.